ěÝzenÝ letovÚho provozu ╚eskÚ republiky
OPMET data - Ceska Republika Aktualizace: 17.04.2021 19:30:25  UTC
SIGMET / AIRMET - NIL
Warning / Vystraha - NIL
AIREP - NIL
REG QNH
REGIONAL QNH FORECAST ISSUED 2021-04-17 17:43 AREA VALID FM/TL QNH/HPA/ : LKAA 171800/172100 1017 =
 
METAR / SPECI
METAR LKBC 171930Z AUTO VRB02KT 9999 -RA OVC014 03/01 Q1020=
METAR LKCV 171930Z 25003KT 9999 OVC026 04/02 Q1020 NOSIG RMK BLU BLU=
METAR LKKB 171930Z 23004KT 9999 OVC020 04/02 Q1020 NOSIG RMK WHT WHT=
METAR LKKU NIL
METAR LKKV 171900Z VRB01KT 7000 SCT009 OVC013 02/00 Q1019 RMK REG QNH 1017=
METAR LKLN 171930Z AUTO 00000KT 4100 -RA BR OVC017 03/03 Q1021=
METAR LKMT 171930Z 02002KT 7000 OVC011 05/04 Q1020 NOSIG RMK REG QNH 1017=
METAR LKNA 171930Z 32007KT 6000 -RA BKN015 OVC021 03/01 Q1019 NOSIG RMK GRN GRN=
METAR LKPD 171930Z 26004KT 9999 SCT026 OVC033 04/03 Q1020 NOSIG RMK BLU BLU=
METAR LKPJ 171930Z AUTO 06002KT 9999 OVC025 06/03 Q1020=
METAR LKPR 171930Z 23004KT 9999 SCT017 OVC030 03/02 Q1020 NOSIG RMK REG QNH 1017=
METAR LKTB 171930Z 35004KT 9999 OVC029 06/01 Q1019 NOSIG RMK REG QNH 1017=
METAR LKVO NIL
TAF
TAF LKBC NIL
TAF LKCV 171700Z 1718/1818 31004KT 9999 BKN020      TEMPO 1718/1809 5000 BR BKN010      PROB40 TEMPO 1722/1807 3000 DZ BR BKN007 OVC012      PROB40 TEMPO 1810/1818 7000 SHRA BKN015=
TAF LKKB 171700Z 1718/1818 29005KT 9999 BKN018      TEMPO 1718/1812 5000 BR SCT006 BKN010      PROB40 TEMPO 1800/1809 2000 DZ BR BKN004      BECMG 1810/1812 SCT030      TEMPO 1812/1818 35010KT 6000 SHRA SCT018TCU=
TAF LKKU NIL
TAF LKKV 171700Z 1718/1900 VRB02KT 9999 BKN010      TEMPO 1718/1900 5000 -RA BR BKN005      PROB30 TEMPO 1722/1806 2000 BCFG BKN002      PROB30 TEMPO 1806/1810 2500 -RASN BR BKN002      PROB40 TEMPO 1810/1816 36012KT 3000 SHRA SCT012TCU=
TAF LKLN NIL
TAF LKMT 171700Z 1718/1900 06005KT 9999 OVC012      BECMG 1718/1720 3000 BR BKN006      TEMPO 1720/1807 VRB02KT 0700 -DZ FG BKN003      PROB40 TEMPO 1800/1806 0300 FG VV001      BECMG 1807/1810 03011KT BKN027      TEMPO 1810/1817 04012KT=
TAF LKNA 171700Z 1718/1818 34006KT 9999 BKN012 OVC016      TEMPO 1718/1808 6000 RA OVC010      PROB40 1722/1808 2000 DZ BR OVC004      BECMG 1810/1812 03008KT SCT015 BKN025=
TAF LKPD 171700Z 1718/1818 26005KT 9999 BKN017      TEMPO 1719/1809 VRB02KT 6000 BKN008      PROB40 TEMPO 1722/1808 2500 DZ BR BKN005      BECMG 1809/1812 VRB02KT BKN025      TEMPO 1811/1817 34008KT 8000 SHRA BKN020=
TAF LKPJ NIL
TAF LKPR 171700Z 1718/1900 31006KT 9999 BKN017      TEMPO 1718/1818 5000 -RA BR BKN010      PROB40 TEMPO 1722/1809 2000 -DZ BR BKN004      PROB30 TEMPO 1811/1816 06006KT 6000 -SHRA SCT017TCU=
TAF LKTB 171700Z 1718/1900 05004KT 9999 OVC025      TEMPO 1718/1806 5000 -RA BR BKN012      PROB30 TEMPO 1800/1806 3000 -DZ BR BKN007      BECMG 1808/1810 05008KT 9999 BKN030      BECMG 1816/1818 CAVOK      TEMPO 1818/1900 06012G24KT=
TAF LKVO NIL